sensor_id;sensor_type;location;lat;lon;timestamp;pressure;altitude;pressure_sealevel;temperature;humidity
84224;BME280;74353;51.208;0.304;2024-01-15T00:01:11;100819.32;;;4.89;42.65
84224;BME280;74353;51.208;0.304;2024-01-15T00:03:39;100823.00;;;5.05;41.88
84224;BME280;74353;51.208;0.304;2024-01-15T00:06:05;100820.51;;;5.01;41.84
84224;BME280;74353;51.208;0.304;2024-01-15T00:08:31;100814.67;;;5.13;41.76
84224;BME280;74353;51.208;0.304;2024-01-15T00:10:57;100820.93;;;4.66;42.08
84224;BME280;74353;51.208;0.304;2024-01-15T00:13:25;100818.80;;;4.74;41.95
84224;BME280;74353;51.208;0.304;2024-01-15T00:15:51;100822.77;;;4.66;42.00
84224;BME280;74353;51.208;0.304;2024-01-15T00:18:17;100819.66;;;5.12;41.55
84224;BME280;74353;51.208;0.304;2024-01-15T00:20:42;100817.43;;;5.39;41.51
84224;BME280;74353;51.208;0.304;2024-01-15T00:23:07;100818.49;;;4.99;41.68
84224;BME280;74353;51.208;0.304;2024-01-15T00:25:33;100812.51;;;4.97;41.85
84224;BME280;74353;51.208;0.304;2024-01-15T00:27:58;100809.46;;;5.04;41.53
84224;BME280;74353;51.208;0.304;2024-01-15T00:30:28;100811.54;;;5.28;41.53
84224;BME280;74353;51.208;0.304;2024-01-15T00:32:54;100813.44;;;4.62;41.57
84224;BME280;74353;51.208;0.304;2024-01-15T00:35:19;100812.91;;;4.67;41.36
84224;BME280;74353;51.208;0.304;2024-01-15T00:37:45;100810.95;;;4.62;41.66
84224;BME280;74353;51.208;0.304;2024-01-15T00:40:11;100812.56;;;4.60;41.74
84224;BME280;74353;51.208;0.304;2024-01-15T00:42:37;100810.45;;;4.77;41.71
84224;BME280;74353;51.208;0.304;2024-01-15T00:45:04;100810.55;;;4.54;41.43
84224;BME280;74353;51.208;0.304;2024-01-15T00:47:29;100805.17;;;4.43;41.49
84224;BME280;74353;51.208;0.304;2024-01-15T00:49:54;100807.70;;;4.51;41.32
84224;BME280;74353;51.208;0.304;2024-01-15T00:52:20;100809.13;;;4.61;41.51
84224;BME280;74353;51.208;0.304;2024-01-15T00:54:47;100808.29;;;4.65;41.44
84224;BME280;74353;51.208;0.304;2024-01-15T00:57:11;100804.16;;;4.59;41.37
84224;BME280;74353;51.208;0.304;2024-01-15T00:59:39;100801.93;;;4.46;41.54
84224;BME280;74353;51.208;0.304;2024-01-15T01:02:07;100800.58;;;4.38;41.54
84224;BME280;74353;51.208;0.304;2024-01-15T01:04:32;100805.76;;;4.17;41.36
84224;BME280;74353;51.208;0.304;2024-01-15T01:06:58;100798.44;;;4.27;41.47
84224;BME280;74353;51.208;0.304;2024-01-15T01:09:23;100795.62;;;4.24;41.50
84224;BME280;74353;51.208;0.304;2024-01-15T01:11:50;100792.73;;;4.24;41.44
84224;BME280;74353;51.208;0.304;2024-01-15T01:14:18;100791.63;;;4.15;41.32
84224;BME280;74353;51.208;0.304;2024-01-15T01:16:44;100792.21;;;3.99;41.47
84224;BME280;74353;51.208;0.304;2024-01-15T01:19:12;100798.09;;;4.06;41.29
84224;BME280;74353;51.208;0.304;2024-01-15T01:21:39;100798.15;;;3.96;41.38
84224;BME280;74353;51.208;0.304;2024-01-15T01:24:06;100797.32;;;4.14;41.06
84224;BME280;74353;51.208;0.304;2024-01-15T01:26:34;100802.65;;;3.95;41.16
84224;BME280;74353;51.208;0.304;2024-01-15T01:28:59;100800.48;;;3.97;40.94
84224;BME280;74353;51.208;0.304;2024-01-15T01:31:27;100791.43;;;3.84;41.09
84224;BME280;74353;51.208;0.304;2024-01-15T01:33:54;100785.08;;;3.87;40.96
84224;BME280;74353;51.208;0.304;2024-01-15T01:36:20;100785.50;;;3.78;41.17
84224;BME280;74353;51.208;0.304;2024-01-15T01:38:47;100783.02;;;3.67;41.28
84224;BME280;74353;51.208;0.304;2024-01-15T01:41:13;100785.37;;;3.81;41.33
84224;BME280;74353;51.208;0.304;2024-01-15T01:43:39;100783.07;;;3.78;41.40
84224;BME280;74353;51.208;0.304;2024-01-15T01:46:06;100786.28;;;3.41;41.49
84224;BME280;74353;51.208;0.304;2024-01-15T01:48:31;100785.90;;;3.36;41.49
84224;BME280;74353;51.208;0.304;2024-01-15T01:51:00;100787.55;;;3.47;41.30
84224;BME280;74353;51.208;0.304;2024-01-15T01:53:22;100790.37;;;3.65;41.35
84224;BME280;74353;51.208;0.304;2024-01-15T01:55:56;100786.33;;;3.75;41.55
84224;BME280;74353;51.208;0.304;2024-01-15T01:58:16;100785.69;;;3.62;41.77
84224;BME280;74353;51.208;0.304;2024-01-15T02:00:42;100784.04;;;3.75;41.55
84224;BME280;74353;51.208;0.304;2024-01-15T02:03:08;100785.73;;;3.33;41.69
84224;BME280;74353;51.208;0.304;2024-01-15T02:05:33;100783.15;;;3.48;41.74
84224;BME280;74353;51.208;0.304;2024-01-15T02:08:00;100785.39;;;3.29;41.56
84224;BME280;74353;51.208;0.304;2024-01-15T02:10:27;100787.90;;;3.56;41.74
84224;BME280;74353;51.208;0.304;2024-01-15T02:12:54;100785.45;;;3.50;41.82
84224;BME280;74353;51.208;0.304;2024-01-15T02:15:21;100785.41;;;2.99;42.11
84224;BME280;74353;51.208;0.304;2024-01-15T02:17:57;100785.07;;;3.04;42.21
84224;BME280;74353;51.208;0.304;2024-01-15T02:20:17;100788.72;;;3.13;42.44
84224;BME280;74353;51.208;0.304;2024-01-15T02:22:42;100794.38;;;2.96;42.35
84224;BME280;74353;51.208;0.304;2024-01-15T02:25:08;100791.47;;;3.17;42.37
84224;BME280;74353;51.208;0.304;2024-01-15T02:27:35;100793.85;;;3.03;42.57
84224;BME280;74353;51.208;0.304;2024-01-15T02:30:01;100789.14;;;2.98;42.64
84224;BME280;74353;51.208;0.304;2024-01-15T02:32:27;100788.09;;;2.97;42.56
84224;BME280;74353;51.208;0.304;2024-01-15T02:34:52;100785.30;;;2.78;42.81
84224;BME280;74353;51.208;0.304;2024-01-15T02:37:18;100784.64;;;2.81;42.75
84224;BME280;74353;51.208;0.304;2024-01-15T02:39:43;100786.06;;;2.94;42.86
84224;BME280;74353;51.208;0.304;2024-01-15T02:42:08;100780.47;;;2.63;42.97
84224;BME280;74353;51.208;0.304;2024-01-15T02:44:34;100780.82;;;2.98;42.71
84224;BME280;74353;51.208;0.304;2024-01-15T02:47:00;100779.86;;;2.67;42.83
84224;BME280;74353;51.208;0.304;2024-01-15T02:49:25;100777.15;;;2.71;43.07
84224;BME280;74353;51.208;0.304;2024-01-15T02:51:51;100775.70;;;2.54;42.97
84224;BME280;74353;51.208;0.304;2024-01-15T02:54:18;100772.88;;;2.67;43.14
84224;BME280;74353;51.208;0.304;2024-01-15T02:56:44;100770.99;;;2.70;43.07
84224;BME280;74353;51.208;0.304;2024-01-15T02:59:11;100769.54;;;2.36;43.20
84224;BME280;74353;51.208;0.304;2024-01-15T03:01:36;100769.13;;;2.55;43.22
84224;BME280;74353;51.208;0.304;2024-01-15T03:04:05;100765.70;;;2.23;43.26
84224;BME280;74353;51.208;0.304;2024-01-15T03:06:31;100766.46;;;2.28;43.18
84224;BME280;74353;51.208;0.304;2024-01-15T03:08:56;100765.60;;;2.64;43.22
84224;BME280;74353;51.208;0.304;2024-01-15T03:11:22;100765.79;;;2.48;43.04
84224;BME280;74353;51.208;0.304;2024-01-15T03:13:49;100768.59;;;2.40;43.03
84224;BME280;74353;51.208;0.304;2024-01-15T03:16:14;100773.25;;;2.31;43.17
84224;BME280;74353;51.208;0.304;2024-01-15T03:18:40;100778.64;;;2.37;42.95
84224;BME280;74353;51.208;0.304;2024-01-15T03:21:06;100774.01;;;2.44;42.85
84224;BME280;74353;51.208;0.304;2024-01-15T03:23:30;100773.15;;;2.27;43.09
84224;BME280;74353;51.208;0.304;2024-01-15T03:25:57;100775.31;;;2.18;43.18
84224;BME280;74353;51.208;0.304;2024-01-15T03:28:23;100769.50;;;2.61;42.83
84224;BME280;74353;51.208;0.304;2024-01-15T03:30:50;100768.19;;;1.96;43.09
84224;BME280;74353;51.208;0.304;2024-01-15T03:33:17;100769.12;;;2.06;43.23
84224;BME280;74353;51.208;0.304;2024-01-15T03:35:42;100775.79;;;2.46;43.00
84224;BME280;74353;51.208;0.304;2024-01-15T03:38:08;100777.38;;;2.38;43.12
84224;BME280;74353;51.208;0.304;2024-01-15T03:40:36;100780.47;;;2.16;43.10
84224;BME280;74353;51.208;0.304;2024-01-15T03:43:01;100779.15;;;2.06;43.21
84224;BME280;74353;51.208;0.304;2024-01-15T03:45:26;100778.16;;;2.00;43.31
84224;BME280;74353;51.208;0.304;2024-01-15T03:47:52;100778.91;;;2.29;43.24
84224;BME280;74353;51.208;0.304;2024-01-15T03:50:20;100784.29;;;2.06;43.25
84224;BME280;74353;51.208;0.304;2024-01-15T03:52:46;100780.08;;;2.25;43.25
84224;BME280;74353;51.208;0.304;2024-01-15T03:55:13;100776.06;;;2.02;43.18
84224;BME280;74353;51.208;0.304;2024-01-15T03:57:41;100778.16;;;1.94;43.31
84224;BME280;74353;51.208;0.304;2024-01-15T04:00:09;100774.83;;;1.90;43.44
84224;BME280;74353;51.208;0.304;2024-01-15T04:02:33;100778.23;;;1.84;43.46
84224;BME280;74353;51.208;0.304;2024-01-15T04:04:59;100775.62;;;2.01;43.66
84224;BME280;74353;51.208;0.304;2024-01-15T04:07:26;100770.90;;;1.96;43.61
84224;BME280;74353;51.208;0.304;2024-01-15T04:09:52;100768.62;;;1.79;43.58
84224;BME280;74353;51.208;0.304;2024-01-15T04:12:19;100767.92;;;1.92;43.64
84224;BME280;74353;51.208;0.304;2024-01-15T04:14:45;100762.97;;;1.91;43.63
84224;BME280;74353;51.208;0.304;2024-01-15T04:17:11;100764.49;;;1.84;43.69
84224;BME280;74353;51.208;0.304;2024-01-15T04:19:36;100765.49;;;1.87;43.66
84224;BME280;74353;51.208;0.304;2024-01-15T04:22:01;100763.69;;;1.79;43.69
84224;BME280;74353;51.208;0.304;2024-01-15T04:24:28;100764.14;;;1.80;43.66
84224;BME280;74353;51.208;0.304;2024-01-15T04:26:54;100764.60;;;1.84;43.54
84224;BME280;74353;51.208;0.304;2024-01-15T04:29:19;100760.14;;;1.79;43.51
84224;BME280;74353;51.208;0.304;2024-01-15T04:31:53;100759.40;;;1.73;43.55
84224;BME280;74353;51.208;0.304;2024-01-15T04:34:20;100762.18;;;1.80;43.44
84224;BME280;74353;51.208;0.304;2024-01-15T04:36:46;100761.10;;;1.92;43.19
84224;BME280;74353;51.208;0.304;2024-01-15T04:39:13;100761.94;;;1.71;43.50
84224;BME280;74353;51.208;0.304;2024-01-15T04:41:40;100759.45;;;1.73;43.43
84224;BME280;74353;51.208;0.304;2024-01-15T04:44:06;100758.22;;;1.73;43.32
84224;BME280;74353;51.208;0.304;2024-01-15T04:46:31;100757.89;;;1.72;43.30
84224;BME280;74353;51.208;0.304;2024-01-15T04:48:58;100752.47;;;1.60;43.51
84224;BME280;74353;51.208;0.304;2024-01-15T04:51:24;100749.99;;;1.69;43.17
84224;BME280;74353;51.208;0.304;2024-01-15T04:53:50;100747.41;;;1.66;43.10
84224;BME280;74353;51.208;0.304;2024-01-15T04:56:16;100743.21;;;1.24;43.37
84224;BME280;74353;51.208;0.304;2024-01-15T04:58:45;100741.82;;;1.49;43.31
84224;BME280;74353;51.208;0.304;2024-01-15T05:01:09;100738.70;;;1.46;43.37
84224;BME280;74353;51.208;0.304;2024-01-15T05:03:36;100740.27;;;1.42;43.22
84224;BME280;74353;51.208;0.304;2024-01-15T05:06:05;100739.08;;;1.44;43.43
84224;BME280;74353;51.208;0.304;2024-01-15T05:08:30;100741.34;;;1.42;43.13
84224;BME280;74353;51.208;0.304;2024-01-15T05:10:56;100749.50;;;1.35;43.36
84224;BME280;74353;51.208;0.304;2024-01-15T05:13:21;100754.88;;;1.43;43.43
84224;BME280;74353;51.208;0.304;2024-01-15T05:15:49;100755.81;;;1.13;43.61
84224;BME280;74353;51.208;0.304;2024-01-15T05:18:17;100762.15;;;1.25;43.50
84224;BME280;74353;51.208;0.304;2024-01-15T05:20:43;100762.17;;;1.00;43.51
84224;BME280;74353;51.208;0.304;2024-01-15T05:23:08;100761.52;;;0.98;43.68
84224;BME280;74353;51.208;0.304;2024-01-15T05:25:33;100761.64;;;1.43;43.60
84224;BME280;74353;51.208;0.304;2024-01-15T05:27:59;100757.21;;;1.06;43.96
84224;BME280;74353;51.208;0.304;2024-01-15T05:30:24;100754.70;;;0.77;43.92
84224;BME280;74353;51.208;0.304;2024-01-15T05:32:51;100756.11;;;1.23;44.08
84224;BME280;74353;51.208;0.304;2024-01-15T05:35:17;100753.66;;;1.06;43.81
84224;BME280;74353;51.208;0.304;2024-01-15T05:37:45;100748.50;;;0.96;43.95
84224;BME280;74353;51.208;0.304;2024-01-15T05:40:12;100744.09;;;1.14;44.03
84224;BME280;74353;51.208;0.304;2024-01-15T05:42:38;100744.40;;;1.14;43.97
84224;BME280;74353;51.208;0.304;2024-01-15T05:45:05;100745.89;;;0.86;43.96
84224;BME280;74353;51.208;0.304;2024-01-15T05:47:30;100744.26;;;0.71;44.08
84224;BME280;74353;51.208;0.304;2024-01-15T05:49:57;100738.44;;;0.73;43.99
84224;BME280;74353;51.208;0.304;2024-01-15T05:52:24;100741.24;;;0.99;43.95
84224;BME280;74353;51.208;0.304;2024-01-15T05:54:51;100748.58;;;0.39;44.12
84224;BME280;74353;51.208;0.304;2024-01-15T05:57:18;100753.01;;;0.73;44.42
84224;BME280;74353;51.208;0.304;2024-01-15T05:59:44;100752.53;;;0.58;44.08
84224;BME280;74353;51.208;0.304;2024-01-15T06:02:09;100753.07;;;0.68;44.17
84224;BME280;74353;51.208;0.304;2024-01-15T06:04:37;100747.87;;;0.52;44.54
84224;BME280;74353;51.208;0.304;2024-01-15T06:07:03;100742.20;;;0.58;44.32
84224;BME280;74353;51.208;0.304;2024-01-15T06:09:29;100742.96;;;0.34;44.34
84224;BME280;74353;51.208;0.304;2024-01-15T06:11:56;100747.16;;;0.60;44.26
84224;BME280;74353;51.208;0.304;2024-01-15T06:14:23;100752.26;;;0.45;44.63
84224;BME280;74353;51.208;0.304;2024-01-15T06:16:52;100756.22;;;0.50;44.50
84224;BME280;74353;51.208;0.304;2024-01-15T06:19:18;100761.04;;;0.28;44.90
84224;BME280;74353;51.208;0.304;2024-01-15T06:21:45;100765.05;;;0.38;44.52
84224;BME280;74353;51.208;0.304;2024-01-15T06:24:14;100767.30;;;0.59;44.46
84224;BME280;74353;51.208;0.304;2024-01-15T06:26:41;100766.20;;;0.28;44.69
84224;BME280;74353;51.208;0.304;2024-01-15T06:29:06;100765.99;;;0.09;45.03
84224;BME280;74353;51.208;0.304;2024-01-15T06:31:31;100767.15;;;0.17;44.92
84224;BME280;74353;51.208;0.304;2024-01-15T06:33:57;100768.02;;;0.18;44.96
84224;BME280;74353;51.208;0.304;2024-01-15T06:36:22;100766.97;;;0.43;44.86
84224;BME280;74353;51.208;0.304;2024-01-15T06:38:48;100770.58;;;0.12;44.99
84224;BME280;74353;51.208;0.304;2024-01-15T06:41:14;100776.56;;;0.18;45.13
84224;BME280;74353;51.208;0.304;2024-01-15T06:43:41;100778.49;;;-0.01;45.57
84224;BME280;74353;51.208;0.304;2024-01-15T06:46:08;100775.78;;;0.27;44.95
84224;BME280;74353;51.208;0.304;2024-01-15T06:48:36;100771.87;;;0.14;45.28
84224;BME280;74353;51.208;0.304;2024-01-15T06:51:04;100771.92;;;0.16;45.35
84224;BME280;74353;51.208;0.304;2024-01-15T06:53:30;100777.70;;;0.32;45.47
84224;BME280;74353;51.208;0.304;2024-01-15T06:55:57;100789.98;;;0.27;45.59
84224;BME280;74353;51.208;0.304;2024-01-15T06:58:26;100794.63;;;0.53;45.67
84224;BME280;74353;51.208;0.304;2024-01-15T07:00:52;100794.53;;;0.27;45.20
84224;BME280;74353;51.208;0.304;2024-01-15T07:03:17;100794.09;;;0.01;45.30
84224;BME280;74353;51.208;0.304;2024-01-15T07:05:44;100790.97;;;0.25;45.34
84224;BME280;74353;51.208;0.304;2024-01-15T07:08:09;100785.43;;;0.08;45.90
84224;BME280;74353;51.208;0.304;2024-01-15T07:10:41;100789.56;;;-0.04;45.88
84224;BME280;74353;51.208;0.304;2024-01-15T07:13:07;100787.73;;;0.28;45.86
84224;BME280;74353;51.208;0.304;2024-01-15T07:15:32;100795.46;;;0.08;45.73
84224;BME280;74353;51.208;0.304;2024-01-15T07:17:59;100798.08;;;-0.10;46.27
84224;BME280;74353;51.208;0.304;2024-01-15T07:20:24;100795.27;;;0.27;46.21
84224;BME280;74353;51.208;0.304;2024-01-15T07:22:50;100794.39;;;0.52;45.86
84224;BME280;74353;51.208;0.304;2024-01-15T07:25:17;100797.94;;;0.53;46.21
84224;BME280;74353;51.208;0.304;2024-01-15T07:27:43;100795.80;;;0.26;46.20
84224;BME280;74353;51.208;0.304;2024-01-15T07:30:11;100797.51;;;0.31;46.10
84224;BME280;74353;51.208;0.304;2024-01-15T07:32:36;100793.88;;;0.19;46.41
84224;BME280;74353;51.208;0.304;2024-01-15T07:35:04;100791.50;;;0.04;46.27
84224;BME280;74353;51.208;0.304;2024-01-15T07:37:30;100795.79;;;0.09;46.12
84224;BME280;74353;51.208;0.304;2024-01-15T07:39:55;100804.48;;;0.27;46.28
84224;BME280;74353;51.208;0.304;2024-01-15T07:42:21;100804.31;;;-0.04;46.40
84224;BME280;74353;51.208;0.304;2024-01-15T07:44:46;100800.84;;;0.37;46.02
84224;BME280;74353;51.208;0.304;2024-01-15T07:47:13;100799.01;;;0.38;45.97
84224;BME280;74353;51.208;0.304;2024-01-15T07:49:40;100811.06;;;0.37;45.99
84224;BME280;74353;51.208;0.304;2024-01-15T07:52:07;100815.76;;;0.05;46.07
84224;BME280;74353;51.208;0.304;2024-01-15T07:54:32;100818.78;;;0.42;45.78
84224;BME280;74353;51.208;0.304;2024-01-15T07:56:58;100814.41;;;0.04;46.06
84224;BME280;74353;51.208;0.304;2024-01-15T07:59:23;100820.55;;;0.24;45.74
84224;BME280;74353;51.208;0.304;2024-01-15T08:01:53;100826.82;;;0.08;45.87
84224;BME280;74353;51.208;0.304;2024-01-15T08:04:17;100829.70;;;0.31;45.75
84224;BME280;74353;51.208;0.304;2024-01-15T08:06:43;100828.09;;;0.14;45.66
84224;BME280;74353;51.208;0.304;2024-01-15T08:09:10;100831.72;;;0.59;45.62
84224;BME280;74353;51.208;0.304;2024-01-15T08:11:35;100833.78;;;0.11;46.05
84224;BME280;74353;51.208;0.304;2024-01-15T08:14:06;100832.30;;;0.03;45.86
84224;BME280;74353;51.208;0.304;2024-01-15T08:16:31;100837.18;;;0.09;45.64
84224;BME280;74353;51.208;0.304;2024-01-15T08:18:57;100836.78;;;0.27;45.75
84224;BME280;74353;51.208;0.304;2024-01-15T08:21:23;100838.74;;;-0.11;45.89
84224;BME280;74353;51.208;0.304;2024-01-15T08:23:48;100839.95;;;0.19;45.96
84224;BME280;74353;51.208;0.304;2024-01-15T08:26:14;100838.10;;;0.24;45.80
84224;BME280;74353;51.208;0.304;2024-01-15T08:28:41;100836.42;;;-0.13;45.84
84224;BME280;74353;51.208;0.304;2024-01-15T08:31:13;100839.94;;;-0.16;46.02
84224;BME280;74353;51.208;0.304;2024-01-15T08:33:41;100841.91;;;0.32;46.01
84224;BME280;74353;51.208;0.304;2024-01-15T08:36:07;100840.15;;;0.07;45.94
84224;BME280;74353;51.208;0.304;2024-01-15T08:38:34;100833.35;;;-0.28;46.06
84224;BME280;74353;51.208;0.304;2024-01-15T08:41:00;100833.75;;;0.18;45.64
84224;BME280;74353;51.208;0.304;2024-01-15T08:43:28;100836.41;;;-0.02;46.07
84224;BME280;74353;51.208;0.304;2024-01-15T08:45:55;100830.20;;;-0.25;46.07
84224;BME280;74353;51.208;0.304;2024-01-15T08:48:22;100828.66;;;0.12;45.88
84224;BME280;74353;51.208;0.304;2024-01-15T08:50:50;100832.75;;;-0.27;46.10
84224;BME280;74353;51.208;0.304;2024-01-15T08:53:17;100834.47;;;0.08;45.97
84224;BME280;74353;51.208;0.304;2024-01-15T08:55:43;100839.72;;;0.23;45.80
84224;BME280;74353;51.208;0.304;2024-01-15T08:58:10;100845.75;;;0.29;45.99
84224;BME280;74353;51.208;0.304;2024-01-15T09:00:36;100841.83;;;0.03;46.20
84224;BME280;74353;51.208;0.304;2024-01-15T09:03:05;100844.78;;;0.18;46.06
84224;BME280;74353;51.208;0.304;2024-01-15T09:05:29;100852.92;;;-0.32;46.55
84224;BME280;74353;51.208;0.304;2024-01-15T09:07:55;100864.23;;;0.00;46.47
84224;BME280;74353;51.208;0.304;2024-01-15T09:10:21;100870.09;;;0.20;46.28
84224;BME280;74353;51.208;0.304;2024-01-15T09:12:48;100873.56;;;-0.20;46.51
84224;BME280;74353;51.208;0.304;2024-01-15T09:15:16;100873.60;;;0.14;46.33
84224;BME280;74353;51.208;0.304;2024-01-15T09:17:41;100876.53;;;-0.02;46.66
84224;BME280;74353;51.208;0.304;2024-01-15T09:20:07;100873.51;;;0.38;46.45
84224;BME280;74353;51.208;0.304;2024-01-15T09:22:31;100872.60;;;-0.07;46.51
84224;BME280;74353;51.208;0.304;2024-01-15T09:24:58;100875.29;;;0.05;46.49
84224;BME280;74353;51.208;0.304;2024-01-15T09:27:23;100879.45;;;0.07;46.47
84224;BME280;74353;51.208;0.304;2024-01-15T09:29:50;100884.92;;;0.00;46.73
84224;BME280;74353;51.208;0.304;2024-01-15T09:32:18;100884.61;;;-1.17;46.74
84224;BME280;74353;51.208;0.304;2024-01-15T09:34:44;100880.85;;;0.49;46.01
84224;BME280;74353;51.208;0.304;2024-01-15T09:37:13;100879.03;;;-0.05;46.08
84224;BME280;74353;51.208;0.304;2024-01-15T09:39:38;100879.29;;;0.62;45.52
84224;BME280;74353;51.208;0.304;2024-01-15T09:42:04;100881.98;;;0.60;46.01
84224;BME280;74353;51.208;0.304;2024-01-15T09:44:29;100888.08;;;0.29;46.12
84224;BME280;74353;51.208;0.304;2024-01-15T09:46:55;100887.90;;;0.53;45.86
84224;BME280;74353;51.208;0.304;2024-01-15T09:49:20;100894.62;;;0.67;45.32
84224;BME280;74353;51.208;0.304;2024-01-15T09:51:48;100902.33;;;0.58;44.91
84224;BME280;74353;51.208;0.304;2024-01-15T09:54:13;100900.57;;;0.66;44.62
84224;BME280;74353;51.208;0.304;2024-01-15T09:56:40;100899.87;;;0.75;44.17
84224;BME280;74353;51.208;0.304;2024-01-15T09:59:07;100900.89;;;0.70;44.01
84224;BME280;74353;51.208;0.304;2024-01-15T10:01:36;100903.69;;;0.65;43.77
84224;BME280;74353;51.208;0.304;2024-01-15T10:04:00;100905.72;;;0.55;43.86
84224;BME280;74353;51.208;0.304;2024-01-15T10:06:27;100902.76;;;0.45;43.63
84224;BME280;74353;51.208;0.304;2024-01-15T10:08:52;100907.83;;;0.93;43.65
84224;BME280;74353;51.208;0.304;2024-01-15T10:11:18;100913.44;;;0.97;43.34
84224;BME280;74353;51.208;0.304;2024-01-15T10:13:45;100909.01;;;0.78;43.53
84224;BME280;74353;51.208;0.304;2024-01-15T10:16:11;100910.02;;;0.75;43.45
84224;BME280;74353;51.208;0.304;2024-01-15T10:18:38;100919.57;;;1.27;43.28
84224;BME280;74353;51.208;0.304;2024-01-15T10:21:06;100922.67;;;0.84;43.30
84224;BME280;74353;51.208;0.304;2024-01-15T10:23:32;100922.58;;;1.24;42.93
84224;BME280;74353;51.208;0.304;2024-01-15T10:25:58;100920.54;;;1.00;42.80
84224;BME280;74353;51.208;0.304;2024-01-15T10:28:26;100926.42;;;0.96;42.82
84224;BME280;74353;51.208;0.304;2024-01-15T10:30:52;100932.85;;;1.23;42.61
84224;BME280;74353;51.208;0.304;2024-01-15T10:33:22;100938.14;;;1.17;42.53
84224;BME280;74353;51.208;0.304;2024-01-15T10:35:44;100942.74;;;1.11;42.49
84224;BME280;74353;51.208;0.304;2024-01-15T10:38:09;100946.84;;;1.62;42.20
84224;BME280;74353;51.208;0.304;2024-01-15T10:40:34;100951.30;;;1.45;42.08
84224;BME280;74353;51.208;0.304;2024-01-15T10:42:59;100944.24;;;1.49;41.84
84224;BME280;74353;51.208;0.304;2024-01-15T10:45:28;100945.38;;;1.60;41.93
84224;BME280;74353;51.208;0.304;2024-01-15T10:47:54;100954.30;;;1.59;42.03
84224;BME280;74353;51.208;0.304;2024-01-15T10:50:19;100950.39;;;1.72;41.58
84224;BME280;74353;51.208;0.304;2024-01-15T10:52:47;100955.80;;;1.78;41.77
84224;BME280;74353;51.208;0.304;2024-01-15T10:55:15;100953.24;;;1.90;41.67
84224;BME280;74353;51.208;0.304;2024-01-15T10:57:44;100952.17;;;1.73;41.84
84224;BME280;74353;51.208;0.304;2024-01-15T11:00:13;100957.34;;;1.73;41.39
84224;BME280;74353;51.208;0.304;2024-01-15T11:02:36;100949.96;;;1.79;40.94
84224;BME280;74353;51.208;0.304;2024-01-15T11:05:03;100944.86;;;1.96;40.86
84224;BME280;74353;51.208;0.304;2024-01-15T11:07:31;100946.57;;;2.28;41.07
84224;BME280;74353;51.208;0.304;2024-01-15T11:09:58;100944.47;;;1.95;41.16
84224;BME280;74353;51.208;0.304;2024-01-15T11:12:25;100947.04;;;1.84;40.92
84224;BME280;74353;51.208;0.304;2024-01-15T11:14:51;100946.81;;;2.14;40.50
84224;BME280;74353;51.208;0.304;2024-01-15T11:17:17;100948.35;;;2.24;40.61
84224;BME280;74353;51.208;0.304;2024-01-15T11:19:44;100946.46;;;2.23;40.02
84224;BME280;74353;51.208;0.304;2024-01-15T11:22:08;100940.24;;;2.17;39.77
84224;BME280;74353;51.208;0.304;2024-01-15T11:24:36;100938.77;;;2.51;39.66
84224;BME280;74353;51.208;0.304;2024-01-15T11:27:00;100938.51;;;2.45;39.78
84224;BME280;74353;51.208;0.304;2024-01-15T11:29:29;100938.00;;;2.32;39.51
84224;BME280;74353;51.208;0.304;2024-01-15T11:32:03;100940.97;;;2.36;39.39
84224;BME280;74353;51.208;0.304;2024-01-15T11:34:19;100942.60;;;2.82;39.05
84224;BME280;74353;51.208;0.304;2024-01-15T11:37:02;100942.13;;;2.58;38.93
84224;BME280;74353;51.208;0.304;2024-01-15T11:41:37;100937.20;;;2.81;38.28
84224;BME280;74353;51.208;0.304;2024-01-15T11:44:03;100934.70;;;2.47;38.40
84224;BME280;74353;51.208;0.304;2024-01-15T11:46:31;100934.16;;;2.73;38.57
84224;BME280;74353;51.208;0.304;2024-01-15T11:49:01;100930.77;;;2.88;38.09
84224;BME280;74353;51.208;0.304;2024-01-15T11:51:21;100933.02;;;2.91;38.11
84224;BME280;74353;51.208;0.304;2024-01-15T11:53:48;100936.96;;;3.03;37.98
84224;BME280;74353;51.208;0.304;2024-01-15T11:56:15;100938.30;;;2.74;38.15
84224;BME280;74353;51.208;0.304;2024-01-15T11:58:40;100940.35;;;2.81;37.86
84224;BME280;74353;51.208;0.304;2024-01-15T12:01:08;100938.77;;;3.17;37.64
84224;BME280;74353;51.208;0.304;2024-01-15T12:03:35;100942.93;;;2.89;37.63
84224;BME280;74353;51.208;0.304;2024-01-15T12:06:06;100942.67;;;3.14;37.48
84224;BME280;74353;51.208;0.304;2024-01-15T12:08:30;100939.04;;;3.41;37.14
84224;BME280;74353;51.208;0.304;2024-01-15T12:10:57;100938.03;;;3.16;37.36
84224;BME280;74353;51.208;0.304;2024-01-15T12:13:27;100935.22;;;3.33;37.02
84224;BME280;74353;51.208;0.304;2024-01-15T12:15:51;100933.48;;;3.29;36.98
84224;BME280;74353;51.208;0.304;2024-01-15T12:18:19;100934.44;;;3.43;36.62
84224;BME280;74353;51.208;0.304;2024-01-15T12:20:46;100935.66;;;3.38;36.90
84224;BME280;74353;51.208;0.304;2024-01-15T12:23:12;100932.52;;;3.59;36.46
84224;BME280;74353;51.208;0.304;2024-01-15T12:25:37;100938.33;;;3.54;36.48
84224;BME280;74353;51.208;0.304;2024-01-15T12:28:05;100944.11;;;3.64;36.38
84224;BME280;74353;51.208;0.304;2024-01-15T12:30:34;100943.46;;;3.49;36.36
84224;BME280;74353;51.208;0.304;2024-01-15T12:33:01;100937.77;;;4.00;35.89
84224;BME280;74353;51.208;0.304;2024-01-15T12:35:25;100941.85;;;4.04;35.87
84224;BME280;74353;51.208;0.304;2024-01-15T12:37:51;100943.59;;;3.56;35.96
84224;BME280;74353;51.208;0.304;2024-01-15T12:40:20;100951.22;;;4.12;35.92
84224;BME280;74353;51.208;0.304;2024-01-15T12:42:47;100946.18;;;4.25;35.50
84224;BME280;74353;51.208;0.304;2024-01-15T12:45:13;100943.31;;;3.67;35.75
84224;BME280;74353;51.208;0.304;2024-01-15T12:47:40;100953.68;;;4.10;35.50
84224;BME280;74353;51.208;0.304;2024-01-15T12:50:07;100948.53;;;3.90;35.48
84224;BME280;74353;51.208;0.304;2024-01-15T12:52:32;100948.10;;;4.09;35.43
84224;BME280;74353;51.208;0.304;2024-01-15T12:54:58;100946.46;;;4.08;35.23
84224;BME280;74353;51.208;0.304;2024-01-15T12:57:24;100941.70;;;4.22;35.20